Nevada, Indiana
Current Conditions -  °F | °C
As of 2:58 PM on Friday 26 Dec 2014 (Local Time) from KGUS Reporting Station
Clear Clear  
Wind Chill: 51°   Ceiling: Unl
Heat Index: 51°   Visibility: 10mi
Dew Point: 47°   Wind: 12mph
Humidity: 83%   Direction: 210°SSW
Pressure: 30.05"   Gusts: NA
Location:  40.3618°N, 86.1268°W
Report Text: KGUS 261958Z AUTO 21010KT 10SM CLR 11/08 A3005 RMK AO2 SLP184 T01080081 TSNO
Loading
Personal Weather Stations






























Interactive Weather Map New forecast layout! Learn more

10-Day Weather Forecast

Advertisements
Track Severe Weather on mobile